createdAt,value
2022-09-05T00:02:36.508Z,4.30
2022-09-05T00:05:26.396Z,4.00
2022-09-05T00:08:01.335Z,3.87
2022-09-05T00:10:53.471Z,4.33
2022-09-05T00:13:31.946Z,3.37
2022-09-05T00:16:31.510Z,3.87
2022-09-05T00:24:22.914Z,4.60
2022-09-05T00:24:35.591Z,3.90
2022-09-05T00:25:31.249Z,3.83
2022-09-05T00:28:25.453Z,3.80
2022-09-05T00:31:55.890Z,3.83
2022-09-05T00:34:13.681Z,4.20
2022-09-05T00:36:45.228Z,3.83
2022-09-05T00:39:19.809Z,4.00
2022-09-05T00:41:49.942Z,4.43
2022-09-05T00:44:19.074Z,3.87
2022-09-05T00:46:54.553Z,4.00
2022-09-05T00:49:25.482Z,3.93
2022-09-05T00:51:57.893Z,4.10
2022-09-05T00:54:54.825Z,4.30
2022-09-05T00:57:47.922Z,4.23
2022-09-05T01:00:18.564Z,4.50
2022-09-05T01:03:19.305Z,3.70
2022-09-05T01:05:59.614Z,4.63
2022-09-05T01:08:47.234Z,4.40
2022-09-05T01:11:20.867Z,4.50
2022-09-05T01:13:53.357Z,4.67
2022-09-05T01:16:25.264Z,4.30
2022-09-05T01:19:05.529Z,4.27
2022-09-05T01:21:54.924Z,4.70
2022-09-05T01:24:55.166Z,3.67
2022-09-05T01:28:34.304Z,5.13
2022-09-05T01:30:40.796Z,4.67
2022-09-05T01:33:19.070Z,3.80
2022-09-05T01:36:04.360Z,3.80
2022-09-05T01:38:38.364Z,4.33
2022-09-05T01:41:18.691Z,4.10
2022-09-05T01:44:23.061Z,4.63
2022-09-05T01:47:00.021Z,4.80
2022-09-05T01:49:47.839Z,4.80
2022-09-05T01:52:26.292Z,5.10
2022-09-05T01:55:10.092Z,5.30
2022-09-05T01:57:45.140Z,4.10
2022-09-05T02:00:15.900Z,4.70
2022-09-05T02:02:53.049Z,4.90
2022-09-05T02:05:56.835Z,4.87
2022-09-05T02:09:01.964Z,4.90
2022-09-05T02:11:45.944Z,5.17
2022-09-05T02:14:33.715Z,5.13
2022-09-05T02:17:23.487Z,4.47
2022-09-05T02:20:13.946Z,5.00
2022-09-05T02:22:58.724Z,4.73
2022-09-05T02:26:00.451Z,4.90
2022-09-05T02:28:21.604Z,4.47
2022-09-05T02:31:19.225Z,4.97
2022-09-05T02:33:48.472Z,5.23
2022-09-05T02:36:23.071Z,5.23
2022-09-05T02:40:42.775Z,4.30
2022-09-05T02:45:07.951Z,5.20
2022-09-05T02:45:19.503Z,5.00
2022-09-05T02:47:32.881Z,4.97
2022-09-05T02:55:42.998Z,5.40
2022-09-05T02:57:27.516Z,4.53
2022-09-05T02:57:41.753Z,5.57
2022-09-05T02:59:17.119Z,4.97
2022-09-05T03:02:03.415Z,5.00
2022-09-05T03:04:53.254Z,4.90
2022-09-05T03:07:51.844Z,5.37
2022-09-05T03:10:53.412Z,5.47
2022-09-05T03:14:00.536Z,5.30
2022-09-05T03:17:22.435Z,4.90
2022-09-05T03:20:51.613Z,5.40
2022-09-05T03:24:02.195Z,4.77
2022-09-05T03:27:02.950Z,5.67
2022-09-05T03:30:01.862Z,4.83
2022-09-05T03:33:08.095Z,4.77
2022-09-05T03:36:37.888Z,5.90
2022-09-05T03:39:47.643Z,5.20
2022-09-05T03:42:51.913Z,4.43
2022-09-05T03:45:53.722Z,4.80
2022-09-05T03:48:54.101Z,5.27
2022-09-05T03:57:13.604Z,4.63
2022-09-05T03:57:13.961Z,5.30
2022-09-05T03:58:56.079Z,5.20
2022-09-05T04:02:40.353Z,4.90
2022-09-05T04:08:09.120Z,4.63
2022-09-05T04:08:18.374Z,4.50
2022-09-05T04:10:22.383Z,5.10
2022-09-05T04:12:53.327Z,4.43
2022-09-05T04:15:31.758Z,4.90
2022-09-05T04:18:03.711Z,4.90
2022-09-05T04:20:40.633Z,4.70
2022-09-05T04:23:23.897Z,5.03
2022-09-05T04:26:12.193Z,4.57
2022-09-05T04:28:53.534Z,4.37
2022-09-05T04:31:30.569Z,4.93
2022-09-05T04:34:09.848Z,4.00
2022-09-05T04:36:39.404Z,4.30
2022-09-05T04:39:24.373Z,4.30
2022-09-05T04:41:55.389Z,4.57
2022-09-05T04:44:27.319Z,4.57
2022-09-05T04:46:56.762Z,4.50
2022-09-05T04:49:26.959Z,4.37
2022-09-05T04:52:50.349Z,3.83
2022-09-05T04:55:19.719Z,4.23
2022-09-05T04:57:51.908Z,4.17
2022-09-05T05:06:00.330Z,3.80
2022-09-05T05:06:18.911Z,4.67
2022-09-05T05:06:38.094Z,3.83
2022-09-05T05:09:19.728Z,4.50
2022-09-05T05:16:20.653Z,4.03
2022-09-05T05:18:06.875Z,3.87
2022-09-05T05:18:08.798Z,3.20
2022-09-05T05:20:41.905Z,3.97
2022-09-05T05:23:14.313Z,3.80
2022-09-05T05:25:48.820Z,3.70
2022-09-05T05:28:25.055Z,3.83
2022-09-05T05:31:01.452Z,3.90
2022-09-05T05:33:33.033Z,3.50
2022-09-05T05:36:03.003Z,4.53
2022-09-05T05:38:39.537Z,3.87
2022-09-05T05:41:21.426Z,3.70
2022-09-05T05:43:49.694Z,3.73
2022-09-05T05:46:29.745Z,4.53
2022-09-05T05:49:24.724Z,4.17
2022-09-05T05:52:05.445Z,3.97
2022-09-05T05:54:38.368Z,3.70
2022-09-05T05:57:42.012Z,4.30
2022-09-05T06:00:27.481Z,3.30
2022-09-05T06:03:38.975Z,4.00
2022-09-05T06:06:32.363Z,3.27
2022-09-05T06:14:51.529Z,4.50
2022-09-05T06:15:07.081Z,3.80
2022-09-05T06:16:45.429Z,3.53
2022-09-05T06:20:47.454Z,3.87
2022-09-05T06:23:41.876Z,4.17
2022-09-05T06:26:51.123Z,3.83
2022-09-05T06:29:34.582Z,4.20
2022-09-05T06:32:17.591Z,3.90
2022-09-05T06:35:17.301Z,3.73
2022-09-05T06:37:48.011Z,4.03
2022-09-05T06:40:20.541Z,4.87
2022-09-05T06:43:05.952Z,3.90
2022-09-05T06:45:58.463Z,4.40
2022-09-05T06:48:44.729Z,4.37
2022-09-05T06:52:27.803Z,4.83
2022-09-05T06:55:37.454Z,3.83
2022-09-05T06:59:07.750Z,4.27
2022-09-05T07:02:00.337Z,4.20
2022-09-05T07:05:23.926Z,6.17
2022-09-05T07:07:27.628Z,5.20
2022-09-05T07:10:00.469Z,4.63
2022-09-05T07:12:30.648Z,3.80
2022-09-05T07:15:13.770Z,3.87
2022-09-05T07:18:09.577Z,4.43
2022-09-05T07:21:17.136Z,4.87
2022-09-05T07:24:05.971Z,5.27
2022-09-05T07:26:52.113Z,4.73
2022-09-05T07:29:28.158Z,3.90
2022-09-05T07:31:56.983Z,2.80
2022-09-05T07:34:28.034Z,3.07
2022-09-05T07:37:15.058Z,4.90
2022-09-05T07:39:49.456Z,7.70
2022-09-05T07:42:21.449Z,4.40
2022-09-05T07:44:54.183Z,4.83
2022-09-05T07:47:24.396Z,5.40
2022-09-05T07:50:30.885Z,4.50
2022-09-05T07:56:54.861Z,5.20
2022-09-05T07:56:59.247Z,4.47
2022-09-05T07:58:24.600Z,4.97
2022-09-05T08:00:53.329Z,4.37
2022-09-05T08:03:27.574Z,3.60
2022-09-05T08:05:58.089Z,3.30
2022-09-05T08:08:29.853Z,4.13
2022-09-05T08:11:23.938Z,4.70
2022-09-05T08:14:21.917Z,4.37
2022-09-05T08:16:48.024Z,3.50
2022-09-05T08:19:41.881Z,3.83
2022-09-05T08:22:14.389Z,3.90
2022-09-05T08:24:45.046Z,3.53
2022-09-05T08:27:18.062Z,5.37
2022-09-05T08:29:48.330Z,4.90
2022-09-05T08:32:35.150Z,5.87
2022-09-05T08:35:06.306Z,5.03
2022-09-05T08:37:34.535Z,3.67
2022-09-05T08:40:10.241Z,4.00
2022-09-05T08:43:30.882Z,3.90
2022-09-05T08:46:44.407Z,5.57
2022-09-05T08:48:55.429Z,5.60
2022-09-05T08:51:35.804Z,6.70
2022-09-05T08:54:20.362Z,4.90
2022-09-05T08:56:55.767Z,5.63
2022-09-05T08:59:37.506Z,3.30
2022-09-05T09:03:03.984Z,4.93
2022-09-05T09:06:13.598Z,4.57
2022-09-05T09:08:55.395Z,4.07
2022-09-05T09:11:31.140Z,4.00
2022-09-05T09:14:36.461Z,5.23
2022-09-05T09:17:19.605Z,3.50
2022-09-05T09:19:51.338Z,8.73
2022-09-05T09:22:29.153Z,5.67
2022-09-05T09:25:14.180Z,4.80
2022-09-05T09:28:48.034Z,7.20
2022-09-05T09:30:53.636Z,3.70
2022-09-05T09:33:34.578Z,3.67
2022-09-05T09:36:07.990Z,3.10
2022-09-05T09:38:41.895Z,2.80
2022-09-05T09:41:39.014Z,3.30
2022-09-05T09:45:27.620Z,3.77
2022-09-05T09:48:37.222Z,3.50
2022-09-05T09:51:30.380Z,2.70
2022-09-05T09:54:18.753Z,2.30
2022-09-05T09:57:04.907Z,2.60
2022-09-05T09:59:56.697Z,3.53
2022-09-05T10:04:19.019Z,3.30
2022-09-05T10:10:45.324Z,3.33
2022-09-05T10:11:00.446Z,8.63
2022-09-05T10:13:19.270Z,3.00
2022-09-05T10:16:35.117Z,3.77
2022-09-05T10:23:01.083Z,2.47
2022-09-05T10:25:50.839Z,2.70
2022-09-05T10:28:25.593Z,2.87
2022-09-05T10:33:06.626Z,3.33
2022-09-05T10:35:17.244Z,2.20
2022-09-05T10:36:39.143Z,2.60
2022-09-05T10:39:18.605Z,3.00
2022-09-05T10:41:53.146Z,3.10
2022-09-05T10:44:29.706Z,2.30
2022-09-05T10:47:06.323Z,2.77
2022-09-05T10:49:39.137Z,3.80
2022-09-05T10:52:18.723Z,3.10
2022-09-05T10:55:14.166Z,3.03
2022-09-05T10:57:58.471Z,2.47
2022-09-05T11:02:21.508Z,3.40
2022-09-05T11:03:46.723Z,3.00
2022-09-05T11:06:20.871Z,4.83
2022-09-05T11:09:00.719Z,3.17
2022-09-05T11:11:34.788Z,3.23
2022-09-05T11:14:05.280Z,2.97
2022-09-05T11:16:37.745Z,3.40
2022-09-05T11:19:06.969Z,3.30
2022-09-05T11:22:12.117Z,2.80
2022-09-05T11:24:48.846Z,3.63
2022-09-05T11:27:26.862Z,3.10
2022-09-05T11:29:57.549Z,3.83
2022-09-05T11:39:46.767Z,3.00
2022-09-05T11:39:53.883Z,3.40
2022-09-05T11:40:05.987Z,3.57
2022-09-05T11:42:22.422Z,3.63
2022-09-05T11:45:25.132Z,3.13
2022-09-05T11:48:22.710Z,3.40
2022-09-05T11:51:05.986Z,3.53
2022-09-05T11:54:01.699Z,3.80
2022-09-05T11:57:06.444Z,3.50
2022-09-05T12:00:31.310Z,3.70
2022-09-05T12:03:57.545Z,4.50
2022-09-05T12:07:03.174Z,4.13
2022-09-05T12:10:04.127Z,3.40
2022-09-05T12:12:41.264Z,3.00
2022-09-05T12:15:26.681Z,3.63
2022-09-05T12:18:19.333Z,3.43
2022-09-05T12:21:01.672Z,3.13
2022-09-05T12:24:08.284Z,3.00
2022-09-05T12:27:41.953Z,3.00
2022-09-05T12:29:29.053Z,4.37
2022-09-05T12:34:31.864Z,4.10
2022-09-05T12:36:06.119Z,3.73
2022-09-05T12:40:43.590Z,3.93
2022-09-05T12:41:34.653Z,3.57
2022-09-05T12:44:13.846Z,3.20
2022-09-05T12:46:24.301Z,3.60
2022-09-05T12:48:57.285Z,4.27
2022-09-05T12:51:46.353Z,4.30
2022-09-05T12:54:33.798Z,3.77
2022-09-05T13:02:05.224Z,3.50
2022-09-05T13:02:56.793Z,3.60
2022-09-05T13:03:12.853Z,4.13
2022-09-05T13:05:53.174Z,4.43
2022-09-05T13:08:22.272Z,4.77
2022-09-05T13:14:47.089Z,3.27
2022-09-05T13:14:57.190Z,2.80
2022-09-05T13:16:35.866Z,3.57
2022-09-05T13:19:07.696Z,3.67
2022-09-05T13:21:40.967Z,3.37
2022-09-05T13:24:12.223Z,3.30
2022-09-05T13:26:43.211Z,3.30
2022-09-05T13:29:16.141Z,3.40
2022-09-05T13:37:54.609Z,3.37
2022-09-05T13:38:17.894Z,3.77
2022-09-05T13:40:58.211Z,3.60
2022-09-05T13:43:27.681Z,3.37
2022-09-05T13:46:07.946Z,3.90
2022-09-05T13:51:37.576Z,2.90
2022-09-05T13:54:36.299Z,3.17
2022-09-05T13:57:31.785Z,3.33
2022-09-05T14:00:41.389Z,3.00
2022-09-05T14:03:46.143Z,3.30
2022-09-05T14:07:43.790Z,2.87
2022-09-05T14:10:36.738Z,3.17
2022-09-05T14:13:05.846Z,3.67
2022-09-05T14:15:40.778Z,3.50
2022-09-05T14:18:22.181Z,3.10
2022-09-05T14:21:14.043Z,3.80
2022-09-05T14:23:53.663Z,2.90
2022-09-05T14:26:28.764Z,3.37
2022-09-05T14:29:03.464Z,3.50
2022-09-05T14:37:37.484Z,3.10
2022-09-05T14:37:50.097Z,3.40
2022-09-05T14:38:09.425Z,3.13
2022-09-05T14:42:03.597Z,3.70
2022-09-05T14:44:57.920Z,3.93
2022-09-05T14:48:24.622Z,3.43
2022-09-05T14:51:11.743Z,3.70
2022-09-05T14:53:59.772Z,3.33
2022-09-05T14:57:23.340Z,3.77
2022-09-05T15:02:48.252Z,3.80
2022-09-05T15:03:00.357Z,3.40
2022-09-05T15:05:20.321Z,3.03
2022-09-05T15:07:49.641Z,3.87
2022-09-05T15:12:16.177Z,3.43
2022-09-05T15:13:25.785Z,3.30
2022-09-05T15:16:02.959Z,3.80
2022-09-05T15:18:33.684Z,3.60
2022-09-05T15:21:33.691Z,4.27
2022-09-05T15:24:14.904Z,3.43
2022-09-05T15:26:53.914Z,4.13
2022-09-05T15:29:24.672Z,3.20
2022-09-05T15:32:08.953Z,3.87
2022-09-05T15:34:40.093Z,3.30
2022-09-05T15:37:30.976Z,3.37
2022-09-05T15:40:07.734Z,4.07
2022-09-05T15:42:51.813Z,3.53
2022-09-05T15:45:25.853Z,3.97
2022-09-05T15:48:16.143Z,2.90
2022-09-05T15:50:50.175Z,4.07
2022-09-05T15:53:24.093Z,3.50
2022-09-05T15:55:59.897Z,3.70
2022-09-05T15:58:52.466Z,4.10
2022-09-05T16:01:32.538Z,3.67
2022-09-05T16:09:15.241Z,3.53
2022-09-05T16:10:29.952Z,3.60
2022-09-05T16:10:33.928Z,3.10
2022-09-05T16:12:42.078Z,2.90
2022-09-05T16:16:56.385Z,3.17
2022-09-05T16:23:13.183Z,3.60
2022-09-05T16:23:33.323Z,2.80
2022-09-05T16:23:47.857Z,2.77
2022-09-05T16:26:25.022Z,2.87
2022-09-05T16:28:58.058Z,3.60
2022-09-05T16:31:33.434Z,3.10
2022-09-05T16:34:02.752Z,3.27
2022-09-05T16:36:57.897Z,3.60
2022-09-05T16:39:38.671Z,2.73
2022-09-05T16:42:13.456Z,3.50
2022-09-05T16:44:46.093Z,3.03
2022-09-05T16:47:24.339Z,3.60
2022-09-05T16:50:01.754Z,3.17
2022-09-05T16:52:37.066Z,2.93
2022-09-05T16:55:12.242Z,3.10
2022-09-05T16:57:55.367Z,3.70
2022-09-05T17:00:26.028Z,3.40
2022-09-05T17:02:58.674Z,3.43
2022-09-05T17:05:31.099Z,3.50
2022-09-05T17:08:13.549Z,3.53
2022-09-05T17:10:46.621Z,3.10
2022-09-05T17:13:42.065Z,3.17
2022-09-05T17:16:13.698Z,2.80
2022-09-05T17:18:41.993Z,3.90
2022-09-05T17:21:12.362Z,3.63
2022-09-05T17:29:33.327Z,2.97
2022-09-05T17:29:36.267Z,3.50
2022-09-05T17:32:48.137Z,2.63
2022-09-05T17:35:26.688Z,3.10
2022-09-05T17:38:37.721Z,3.10
2022-09-05T17:41:50.823Z,3.10
2022-09-05T17:44:22.551Z,3.13
2022-09-05T17:47:06.646Z,3.53
2022-09-05T17:49:43.130Z,3.47
2022-09-05T17:52:29.394Z,3.17
2022-09-05T17:54:57.926Z,3.30
2022-09-05T17:57:41.361Z,3.40
2022-09-05T18:01:04.421Z,3.30
2022-09-05T18:04:17.056Z,3.60
2022-09-05T18:07:00.015Z,3.90
2022-09-05T18:16:10.572Z,4.20
2022-09-05T18:19:27.911Z,3.47
2022-09-05T18:21:48.428Z,3.80
2022-09-05T18:24:33.223Z,6.30
2022-09-05T18:30:06.000Z,4.43
2022-09-05T18:32:46.541Z,4.50
2022-09-05T18:35:36.674Z,3.63
2022-09-05T18:38:26.073Z,3.33
2022-09-05T18:41:22.037Z,4.20
2022-09-05T18:44:13.285Z,3.43
2022-09-05T18:46:51.386Z,4.43
2022-09-05T18:50:24.377Z,3.63
2022-09-05T18:52:23.587Z,3.43
2022-09-05T18:56:10.848Z,3.50
2022-09-05T18:57:47.861Z,3.00
2022-09-05T19:00:23.396Z,3.40
2022-09-05T19:02:59.007Z,3.67
2022-09-05T19:05:38.995Z,3.50
2022-09-05T19:08:26.711Z,4.03
2022-09-05T19:10:58.813Z,3.63
2022-09-05T19:13:32.083Z,3.27
2022-09-05T19:16:42.768Z,7.07
2022-09-05T19:19:11.766Z,4.90
2022-09-05T19:22:32.004Z,3.70
2022-09-05T19:24:44.952Z,3.40
2022-09-05T19:32:36.097Z,3.70
2022-09-05T19:36:50.318Z,3.50
2022-09-05T19:36:55.466Z,3.90
2022-09-05T19:36:57.861Z,3.60
2022-09-05T19:39:24.877Z,4.30
2022-09-05T19:46:27.530Z,3.13
2022-09-05T19:47:43.623Z,3.90
2022-09-05T19:47:48.431Z,3.77
2022-09-05T19:50:09.304Z,3.60
2022-09-05T19:52:39.896Z,2.93
2022-09-05T19:55:21.861Z,3.60
2022-09-05T19:58:01.241Z,3.30
2022-09-05T20:00:41.699Z,3.20
2022-09-05T20:03:10.008Z,3.47
2022-09-05T20:05:40.695Z,3.20
2022-09-05T20:08:13.347Z,3.97
2022-09-05T20:10:41.658Z,3.27
2022-09-05T20:13:23.747Z,3.17
2022-09-05T20:15:52.440Z,2.80
2022-09-05T20:18:23.108Z,3.33
2022-09-05T20:20:54.292Z,3.60
2022-09-05T20:23:25.219Z,3.70
2022-09-05T20:25:54.507Z,3.90
2022-09-05T20:28:24.711Z,2.80
2022-09-05T20:30:55.125Z,3.57
2022-09-05T20:33:26.972Z,2.80
2022-09-05T20:43:07.736Z,3.30
2022-09-05T20:43:20.080Z,3.60
2022-09-05T20:43:22.466Z,3.47
2022-09-05T20:44:36.472Z,3.30
2022-09-05T20:48:23.961Z,3.33
2022-09-05T20:54:06.289Z,4.00
2022-09-05T20:54:24.766Z,3.10
2022-09-05T20:55:42.133Z,3.50
2022-09-05T20:58:12.525Z,3.60
2022-09-05T21:01:19.709Z,3.33
2022-09-05T21:03:36.752Z,2.97
2022-09-05T21:06:22.593Z,3.30
2022-09-05T21:08:52.599Z,3.40
2022-09-05T21:11:31.896Z,3.53
2022-09-05T21:14:03.421Z,3.43
2022-09-05T21:16:33.383Z,3.40
2022-09-05T21:19:01.661Z,3.40
2022-09-05T21:21:31.514Z,2.70
2022-09-05T21:24:15.939Z,2.90
2022-09-05T21:26:51.866Z,3.63
2022-09-05T21:29:27.453Z,2.87
2022-09-05T21:32:01.630Z,3.70
2022-09-05T21:34:32.849Z,2.80
2022-09-05T21:37:07.438Z,3.30
2022-09-05T21:39:40.004Z,3.70
2022-09-05T21:42:39.133Z,3.37
2022-09-05T21:47:40.314Z,3.20
2022-09-05T21:47:53.693Z,3.70
2022-09-05T21:50:31.013Z,2.90
2022-09-05T21:53:14.595Z,2.63
2022-09-05T21:59:18.703Z,2.60
2022-09-05T21:59:19.802Z,3.00
2022-09-05T22:01:44.644Z,2.47
2022-09-05T22:04:17.563Z,2.97
2022-09-05T22:06:48.763Z,2.40
2022-09-05T22:09:17.663Z,2.37
2022-09-05T22:11:50.301Z,2.97
2022-09-05T22:14:20.736Z,2.20
2022-09-05T22:16:50.536Z,2.80
2022-09-05T22:19:22.940Z,2.53
2022-09-05T22:21:52.235Z,2.47
2022-09-05T22:24:20.482Z,2.80
2022-09-05T22:27:11.861Z,2.80
2022-09-05T22:29:43.070Z,2.30
2022-09-05T22:32:15.834Z,2.43
2022-09-05T22:34:44.057Z,2.00
2022-09-05T22:37:16.910Z,2.43
2022-09-05T22:39:45.572Z,1.83
2022-09-05T22:42:13.838Z,2.00
2022-09-05T22:44:43.541Z,2.40
2022-09-05T22:47:12.060Z,1.97
2022-09-05T22:49:40.760Z,1.90
2022-09-05T22:52:09.684Z,2.13
2022-09-05T22:54:37.885Z,2.10
2022-09-05T22:57:06.570Z,2.23
2022-09-05T22:59:34.751Z,1.83
2022-09-05T23:02:04.284Z,1.70
2022-09-05T23:04:32.574Z,1.87
2022-09-05T23:07:03.193Z,2.33
2022-09-05T23:09:31.378Z,1.70
2022-09-05T23:11:59.520Z,1.73
2022-09-05T23:14:27.696Z,1.60
2022-09-05T23:16:56.141Z,2.00
2022-09-05T23:19:25.659Z,1.57
2022-09-05T23:21:53.877Z,1.63
2022-09-05T23:24:22.069Z,1.47
2022-09-05T23:26:50.245Z,2.10
2022-09-05T23:29:18.472Z,1.60
2022-09-05T23:31:46.677Z,1.40
2022-09-05T23:34:14.861Z,1.97
2022-09-05T23:36:44.348Z,1.63
2022-09-05T23:39:12.491Z,1.63
2022-09-05T23:41:40.697Z,1.40
2022-09-05T23:44:08.865Z,1.27
2022-09-05T23:46:37.905Z,1.60
2022-09-05T23:49:06.098Z,1.90
2022-09-05T23:51:34.261Z,1.23
2022-09-05T23:54:03.757Z,1.30
2022-09-05T23:56:31.902Z,1.37
2022-09-05T23:59:00.097Z,1.23
